createdAt,value
2023-01-30T00:00:00.707Z,2.38
2023-01-30T00:02:31.621Z,2.26
2023-01-30T00:05:02.185Z,2.20
2023-01-30T00:07:32.721Z,2.37
2023-01-30T00:10:04.403Z,2.31
2023-01-30T00:12:35.319Z,2.35
2023-01-30T00:15:06.878Z,2.23
2023-01-30T00:17:40.270Z,2.36
2023-01-30T00:20:15.892Z,2.40
2023-01-30T00:23:00.469Z,2.32
2023-01-30T00:25:23.696Z,2.21
2023-01-30T00:27:54.522Z,2.30
2023-01-30T00:30:28.116Z,2.28
2023-01-30T00:32:59.754Z,2.28
2023-01-30T00:35:30.588Z,2.29
2023-01-30T00:38:02.827Z,2.42
2023-01-30T00:40:34.071Z,2.28
2023-01-30T00:43:31.682Z,2.26
2023-01-30T00:46:22.197Z,2.26
2023-01-30T00:48:54.594Z,2.28
2023-01-30T00:51:26.537Z,2.34
2023-01-30T00:54:00.080Z,2.28
2023-01-30T00:56:31.279Z,2.38
2023-01-30T00:59:05.547Z,2.44
2023-01-30T01:01:37.709Z,2.28
2023-01-30T01:04:11.462Z,2.31
2023-01-30T01:06:43.523Z,2.28
2023-01-30T01:09:16.390Z,2.38
2023-01-30T01:11:47.887Z,2.22
2023-01-30T01:14:20.380Z,2.32
2023-01-30T01:16:51.353Z,2.32
2023-01-30T01:19:23.164Z,2.26
2023-01-30T01:21:56.762Z,2.34
2023-01-30T01:24:29.966Z,2.25
2023-01-30T01:27:01.960Z,2.29
2023-01-30T01:29:33.753Z,2.32
2023-01-30T01:32:08.504Z,2.25
2023-01-30T01:34:40.347Z,2.26
2023-01-30T01:37:12.578Z,2.32
2023-01-30T01:40:02.106Z,2.26
2023-01-30T01:42:35.902Z,2.30
2023-01-30T01:45:19.391Z,2.26
2023-01-30T01:48:17.858Z,2.32
2023-01-30T01:51:01.668Z,2.30
2023-01-30T01:53:36.243Z,2.32
2023-01-30T01:56:08.709Z,2.32
2023-01-30T01:58:47.568Z,2.42
2023-01-30T02:01:19.968Z,2.22
2023-01-30T02:03:56.279Z,2.12
2023-01-30T02:06:28.295Z,2.11
2023-01-30T02:09:06.905Z,2.10
2023-01-30T02:11:52.724Z,1.95
2023-01-30T02:14:25.691Z,1.94
2023-01-30T02:17:00.692Z,1.84
2023-01-30T02:19:53.825Z,1.82
2023-01-30T02:22:33.193Z,1.80
2023-01-30T02:25:19.502Z,1.92
2023-01-30T02:28:27.262Z,1.86
2023-01-30T02:31:17.021Z,1.94
2023-01-30T02:34:09.587Z,1.96
2023-01-30T02:37:01.486Z,1.98
2023-01-30T02:40:11.476Z,2.01
2023-01-30T02:42:55.045Z,1.92
2023-01-30T02:45:41.320Z,1.81
2023-01-30T02:48:18.050Z,1.74
2023-01-30T02:51:02.240Z,1.78
2023-01-30T02:53:36.822Z,1.80
2023-01-30T02:56:08.172Z,1.76
2023-01-30T02:58:44.715Z,1.67
2023-01-30T03:01:38.585Z,1.70
2023-01-30T03:04:24.960Z,1.75
2023-01-30T03:07:03.170Z,1.70
2023-01-30T03:09:39.747Z,1.78
2023-01-30T03:12:26.015Z,1.84
2023-01-30T03:15:08.753Z,1.90
2023-01-30T03:17:43.513Z,2.03
2023-01-30T03:20:18.383Z,2.02
2023-01-30T03:22:50.204Z,1.97
2023-01-30T03:25:26.724Z,2.01
2023-01-30T03:27:59.421Z,2.09
2023-01-30T03:30:34.887Z,2.17
2023-01-30T03:33:06.447Z,2.14
2023-01-30T03:35:38.064Z,2.20
2023-01-30T03:38:08.592Z,2.26
2023-01-30T03:40:41.771Z,2.21
2023-01-30T03:43:12.532Z,2.36
2023-01-30T03:45:44.291Z,2.38
2023-01-30T03:48:14.797Z,2.22
2023-01-30T03:50:47.464Z,2.37
2023-01-30T03:53:17.928Z,2.30
2023-01-30T03:55:55.627Z,2.26
2023-01-30T03:58:27.038Z,2.32
2023-01-30T04:00:58.448Z,2.38
2023-01-30T04:03:29.014Z,2.45
2023-01-30T04:06:01.119Z,2.38
2023-01-30T04:08:31.706Z,2.42
2023-01-30T04:11:02.375Z,2.46
2023-01-30T04:13:33.586Z,2.52
2023-01-30T04:16:23.831Z,2.56
2023-01-30T04:18:54.404Z,2.56
2023-01-30T04:21:25.747Z,2.58
2023-01-30T04:23:57.741Z,2.68
2023-01-30T04:26:28.353Z,2.68
2023-01-30T04:29:01.158Z,2.69
2023-01-30T04:31:31.801Z,2.76
2023-01-30T04:34:05.912Z,2.84
2023-01-30T04:36:39.935Z,2.88
2023-01-30T04:39:11.802Z,2.88
2023-01-30T04:41:44.069Z,2.95
2023-01-30T04:44:17.643Z,2.90
2023-01-30T04:46:48.185Z,2.87
2023-01-30T04:49:19.843Z,2.77
2023-01-30T04:51:52.183Z,2.87
2023-01-30T04:54:22.901Z,2.76
2023-01-30T04:56:53.669Z,2.67
2023-01-30T04:59:26.091Z,2.65
2023-01-30T05:01:58.036Z,2.58
2023-01-30T05:04:29.783Z,2.64
2023-01-30T05:07:02.987Z,2.56
2023-01-30T05:09:35.086Z,2.57
2023-01-30T05:12:08.204Z,2.49
2023-01-30T05:14:41.418Z,2.48
2023-01-30T05:17:13.765Z,2.42
2023-01-30T05:19:47.267Z,2.38
2023-01-30T05:22:18.820Z,2.43
2023-01-30T05:24:56.227Z,2.39
2023-01-30T05:27:26.833Z,2.32
2023-01-30T05:30:00.372Z,2.38
2023-01-30T05:32:32.580Z,2.39
2023-01-30T05:35:05.244Z,2.41
2023-01-30T05:37:37.326Z,2.44
2023-01-30T05:40:10.311Z,2.36
2023-01-30T05:42:42.123Z,2.41
2023-01-30T05:45:14.584Z,2.48
2023-01-30T05:47:45.941Z,2.40
2023-01-30T05:50:18.225Z,2.36
2023-01-30T05:52:49.919Z,2.46
2023-01-30T05:55:20.813Z,2.55
2023-01-30T05:57:51.492Z,2.52
2023-01-30T06:00:25.278Z,2.57
2023-01-30T06:02:58.618Z,2.48
2023-01-30T06:05:32.306Z,2.59
2023-01-30T06:08:03.019Z,2.62
2023-01-30T06:10:38.255Z,2.54
2023-01-30T06:13:11.220Z,2.64
2023-01-30T06:15:44.173Z,2.70
2023-01-30T06:18:15.543Z,2.66
2023-01-30T06:20:55.643Z,2.69
2023-01-30T06:23:28.138Z,2.77
2023-01-30T06:26:05.872Z,2.74
2023-01-30T06:28:35.853Z,2.88
2023-01-30T06:31:09.802Z,2.88
2023-01-30T06:33:41.962Z,2.90
2023-01-30T06:36:25.652Z,3.04
2023-01-30T06:38:46.975Z,3.08
2023-01-30T06:41:19.904Z,3.06
2023-01-30T06:43:52.063Z,3.09
2023-01-30T06:46:24.542Z,3.16
2023-01-30T06:48:57.944Z,3.22
2023-01-30T06:51:28.663Z,3.18
2023-01-30T06:53:59.430Z,3.27
2023-01-30T06:56:31.772Z,3.33
2023-01-30T06:59:03.739Z,3.44
2023-01-30T07:01:34.238Z,3.43
2023-01-30T07:04:07.681Z,3.44
2023-01-30T07:06:40.787Z,3.41
2023-01-30T07:09:13.183Z,3.49
2023-01-30T07:11:47.601Z,3.50
2023-01-30T07:14:18.191Z,3.56
2023-01-30T07:16:49.129Z,3.58
2023-01-30T07:19:21.134Z,3.58
2023-01-30T07:21:52.691Z,3.66
2023-01-30T07:24:24.496Z,3.68
2023-01-30T07:26:56.860Z,3.66
2023-01-30T07:29:27.854Z,3.62
2023-01-30T07:32:00.553Z,3.76
2023-01-30T07:34:36.269Z,3.79
2023-01-30T07:37:08.515Z,3.86
2023-01-30T07:39:40.122Z,3.91
2023-01-30T07:42:11.762Z,3.90
2023-01-30T07:44:46.940Z,3.90
2023-01-30T07:47:19.251Z,4.00
2023-01-30T07:49:51.360Z,3.99
2023-01-30T07:52:22.283Z,3.96
2023-01-30T07:54:54.478Z,4.01
2023-01-30T07:57:26.541Z,4.02
2023-01-30T07:59:57.938Z,4.04
2023-01-30T08:02:29.337Z,3.94
2023-01-30T08:05:00.321Z,4.06
2023-01-30T08:07:31.506Z,4.02
2023-01-30T08:10:02.018Z,4.06
2023-01-30T08:12:32.893Z,4.08
2023-01-30T08:15:06.246Z,4.08
2023-01-30T08:17:37.722Z,4.11
2023-01-30T08:20:13.108Z,4.08
2023-01-30T08:22:44.566Z,4.21
2023-01-30T08:25:17.616Z,4.16
2023-01-30T08:27:49.077Z,4.25
2023-01-30T08:30:24.125Z,4.24
2023-01-30T08:32:58.343Z,4.28
2023-01-30T08:35:30.350Z,4.36
2023-01-30T08:38:03.579Z,4.41
2023-01-30T08:40:35.211Z,4.35
2023-01-30T08:43:06.161Z,4.38
2023-01-30T08:45:38.040Z,4.35
2023-01-30T08:48:10.695Z,4.42
2023-01-30T08:50:42.394Z,4.39
2023-01-30T08:53:13.087Z,4.40
2023-01-30T08:55:47.662Z,4.38
2023-01-30T08:58:18.387Z,4.50
2023-01-30T09:00:50.445Z,4.62
2023-01-30T09:03:21.255Z,4.64
2023-01-30T09:05:58.264Z,4.66
2023-01-30T09:08:29.266Z,4.81
2023-01-30T09:11:02.354Z,4.76
2023-01-30T09:13:38.326Z,4.70
2023-01-30T09:16:09.040Z,4.81
2023-01-30T09:18:41.606Z,4.79
2023-01-30T09:21:13.819Z,4.84
2023-01-30T09:23:44.534Z,5.01
2023-01-30T09:26:17.570Z,4.89
2023-01-30T09:28:48.637Z,5.08
2023-01-30T09:31:19.554Z,5.15
2023-01-30T09:33:51.801Z,5.16
2023-01-30T09:36:22.709Z,5.14
2023-01-30T09:38:54.952Z,5.12
2023-01-30T09:41:40.463Z,5.10
2023-01-30T09:44:14.117Z,5.29
2023-01-30T09:47:03.462Z,5.30
2023-01-30T09:49:48.942Z,5.48
2023-01-30T09:52:25.361Z,5.42
2023-01-30T09:54:59.032Z,5.56
2023-01-30T09:57:30.137Z,5.60
2023-01-30T10:00:10.124Z,5.60
2023-01-30T10:02:43.790Z,5.56
2023-01-30T10:05:17.536Z,5.61
2023-01-30T10:08:08.209Z,5.60
2023-01-30T10:11:10.094Z,5.78
2023-01-30T10:13:48.755Z,5.79
2023-01-30T10:16:28.211Z,5.81
2023-01-30T10:19:36.487Z,5.94
2023-01-30T10:22:10.456Z,5.90
2023-01-30T10:24:57.286Z,6.08
2023-01-30T10:27:31.491Z,6.09
2023-01-30T10:30:05.151Z,6.13
2023-01-30T10:32:41.817Z,6.14
2023-01-30T10:35:19.695Z,6.16
2023-01-30T10:38:01.944Z,6.28
2023-01-30T10:40:48.921Z,7.57
2023-01-30T10:43:31.824Z,7.54
2023-01-30T10:46:20.425Z,6.67
2023-01-30T10:49:10.690Z,6.23
2023-01-30T10:51:59.542Z,6.19
2023-01-30T10:54:39.237Z,6.16
2023-01-30T10:57:21.669Z,5.99
2023-01-30T10:59:59.718Z,6.02
2023-01-30T11:02:38.501Z,6.00
2023-01-30T11:05:22.119Z,6.02
2023-01-30T11:07:52.978Z,6.12
2023-01-30T11:10:28.091Z,6.10
2023-01-30T11:13:02.936Z,6.14
2023-01-30T11:15:44.767Z,6.14
2023-01-30T11:19:17.643Z,6.28
2023-01-30T11:21:09.001Z,6.34
2023-01-30T11:23:44.201Z,6.48
2023-01-30T11:26:29.491Z,6.54
2023-01-30T11:29:00.322Z,6.47
2023-01-30T11:31:41.228Z,6.59
2023-01-30T11:34:16.190Z,6.49
2023-01-30T11:36:50.156Z,6.42
2023-01-30T11:39:23.426Z,6.37
2023-01-30T11:42:01.861Z,6.29
2023-01-30T11:44:38.219Z,6.32
2023-01-30T11:47:13.443Z,6.37
2023-01-30T11:50:29.062Z,6.24
2023-01-30T11:52:24.906Z,5.74
2023-01-30T11:54:59.391Z,5.38
2023-01-30T11:57:31.716Z,5.00
2023-01-30T12:00:04.367Z,4.80
2023-01-30T12:02:38.589Z,4.61
2023-01-30T12:05:24.544Z,4.46
2023-01-30T12:07:56.626Z,4.26
2023-01-30T12:10:32.630Z,4.18
2023-01-30T12:13:08.247Z,4.12
2023-01-30T12:15:40.602Z,4.06
2023-01-30T12:18:28.746Z,4.10
2023-01-30T12:21:06.485Z,4.22
2023-01-30T12:23:44.695Z,4.54
2023-01-30T12:26:37.261Z,4.60
2023-01-30T12:29:30.146Z,4.83
2023-01-30T12:32:12.602Z,5.37
2023-01-30T12:34:48.253Z,5.71
2023-01-30T12:37:21.824Z,5.75
2023-01-30T12:39:59.931Z,5.86
2023-01-30T12:42:57.377Z,6.13
2023-01-30T12:45:31.058Z,6.48
2023-01-30T12:48:19.624Z,6.76
2023-01-30T12:51:25.371Z,6.76
2023-01-30T12:54:16.014Z,6.72
2023-01-30T12:57:07.397Z,6.94
2023-01-30T12:59:53.446Z,6.76
2023-01-30T13:02:41.566Z,6.70
2023-01-30T13:05:42.339Z,6.64
2023-01-30T13:08:46.915Z,6.56
2023-01-30T13:11:41.855Z,6.62
2023-01-30T13:14:38.111Z,6.34
2023-01-30T13:17:27.605Z,6.28
2023-01-30T13:20:02.793Z,6.30
2023-01-30T13:22:49.308Z,6.30
2023-01-30T13:25:22.859Z,6.34
2023-01-30T13:27:57.928Z,6.54
2023-01-30T13:30:30.677Z,6.52
2023-01-30T13:33:13.356Z,6.48
2023-01-30T13:35:49.739Z,6.32
2023-01-30T13:38:24.525Z,6.44
2023-01-30T13:41:02.104Z,6.40
2023-01-30T13:43:41.818Z,6.22
2023-01-30T13:46:19.292Z,5.99
2023-01-30T13:49:11.371Z,5.63
2023-01-30T13:52:02.627Z,5.42
2023-01-30T13:54:46.585Z,5.22
2023-01-30T13:57:24.745Z,5.08
2023-01-30T14:00:31.803Z,4.94
2023-01-30T14:03:08.360Z,4.61
2023-01-30T14:06:02.442Z,4.46
2023-01-30T14:08:51.372Z,4.35
2023-01-30T14:11:40.267Z,4.15
2023-01-30T14:14:24.810Z,4.16
2023-01-30T14:16:58.686Z,4.15
2023-01-30T14:19:35.194Z,4.04
2023-01-30T14:22:25.405Z,4.10
2023-01-30T14:25:33.753Z,4.08
2023-01-30T14:28:10.370Z,4.20
2023-01-30T14:30:49.574Z,4.25
2023-01-30T14:33:26.179Z,4.24
2023-01-30T14:36:06.979Z,4.32
2023-01-30T14:38:39.812Z,4.28
2023-01-30T14:41:21.088Z,4.36
2023-01-30T14:43:54.862Z,4.36
2023-01-30T14:46:30.517Z,4.26
2023-01-30T14:49:06.873Z,4.28
2023-01-30T14:51:52.253Z,4.18
2023-01-30T14:54:33.284Z,4.15
2023-01-30T14:57:05.501Z,4.18
2023-01-30T15:00:11.470Z,4.10
2023-01-30T15:02:31.374Z,3.98
2023-01-30T15:05:06.779Z,4.05
2023-01-30T15:08:00.104Z,3.98
2023-01-30T15:10:53.711Z,4.05
2023-01-30T15:13:30.101Z,4.08
2023-01-30T15:16:18.985Z,4.06
2023-01-30T15:19:24.401Z,4.05
2023-01-30T15:22:17.167Z,4.03
2023-01-30T15:25:06.978Z,3.98
2023-01-30T15:27:55.753Z,4.14
2023-01-30T15:30:34.802Z,4.16
2023-01-30T15:33:31.474Z,4.26
2023-01-30T15:36:00.271Z,4.20
2023-01-30T15:38:35.994Z,4.24
2023-01-30T15:41:07.708Z,4.32
2023-01-30T15:43:55.430Z,4.28
2023-01-30T15:46:38.275Z,4.34
2023-01-30T15:49:28.296Z,4.34
2023-01-30T15:52:10.790Z,4.47
2023-01-30T15:54:44.538Z,4.36
2023-01-30T15:57:19.813Z,4.34
2023-01-30T15:59:50.493Z,4.26
2023-01-30T16:02:35.613Z,4.22
2023-01-30T16:05:17.453Z,4.12
2023-01-30T16:07:54.612Z,4.24
2023-01-30T16:10:28.147Z,4.26
2023-01-30T16:13:01.197Z,4.32
2023-01-30T16:15:48.763Z,4.46
2023-01-30T16:18:34.402Z,4.52
2023-01-30T16:21:07.952Z,4.54
2023-01-30T16:23:41.494Z,4.44
2023-01-30T16:26:18.130Z,4.27
2023-01-30T16:28:51.675Z,4.19
2023-01-30T16:31:25.458Z,4.20
2023-01-30T16:33:56.331Z,4.14
2023-01-30T16:36:32.311Z,4.08
2023-01-30T16:39:05.890Z,4.05
2023-01-30T16:41:45.607Z,4.10
2023-01-30T16:44:24.837Z,4.06
2023-01-30T16:47:06.892Z,4.05
2023-01-30T16:49:48.833Z,4.06
2023-01-30T16:52:24.044Z,4.02
2023-01-30T16:55:00.978Z,4.06
2023-01-30T16:57:37.341Z,4.14
2023-01-30T17:00:24.495Z,4.18
2023-01-30T17:03:07.007Z,4.18
2023-01-30T17:05:46.614Z,4.25
2023-01-30T17:08:42.925Z,4.22
2023-01-30T17:11:33.238Z,4.18
2023-01-30T17:14:22.146Z,4.19
2023-01-30T17:17:11.008Z,4.19
2023-01-30T17:19:45.978Z,4.30
2023-01-30T17:22:20.350Z,4.27
2023-01-30T17:24:53.531Z,4.27
2023-01-30T17:27:27.620Z,4.24
2023-01-30T17:29:58.934Z,4.32
2023-01-30T17:32:29.742Z,4.34
2023-01-30T17:35:03.456Z,4.36
2023-01-30T17:37:34.069Z,4.36
2023-01-30T17:40:08.042Z,4.39
2023-01-30T17:42:38.880Z,4.50
2023-01-30T17:45:12.007Z,4.50
2023-01-30T17:47:42.592Z,4.56
2023-01-30T17:50:19.971Z,4.58
2023-01-30T17:52:51.591Z,4.62
2023-01-30T17:55:22.638Z,4.60
2023-01-30T17:57:55.293Z,4.64
2023-01-30T18:00:26.114Z,4.73
2023-01-30T18:02:58.284Z,4.73
2023-01-30T18:05:32.710Z,4.76
2023-01-30T18:08:04.787Z,4.82
2023-01-30T18:10:37.526Z,4.87
2023-01-30T18:13:08.044Z,4.95
2023-01-30T18:15:40.162Z,5.02
2023-01-30T18:18:16.145Z,5.08
2023-01-30T18:20:48.902Z,5.09
2023-01-30T18:23:21.933Z,5.10
2023-01-30T18:25:53.484Z,5.12
2023-01-30T18:28:27.169Z,5.18
2023-01-30T18:30:59.896Z,5.26
2023-01-30T18:33:33.256Z,5.25
2023-01-30T18:36:09.033Z,5.30
2023-01-30T18:38:42.443Z,5.30
2023-01-30T18:41:16.470Z,5.26
2023-01-30T18:43:50.583Z,5.26
2023-01-30T18:46:23.484Z,5.27
2023-01-30T18:48:55.352Z,5.28
2023-01-30T18:51:31.553Z,5.28
2023-01-30T18:54:03.377Z,5.24
2023-01-30T18:56:35.492Z,5.24
2023-01-30T18:59:08.469Z,5.25
2023-01-30T19:01:42.769Z,5.32
2023-01-30T19:04:16.403Z,5.26
2023-01-30T19:06:49.395Z,5.33
2023-01-30T19:09:24.365Z,5.36
2023-01-30T19:12:14.027Z,5.34
2023-01-30T19:14:47.263Z,5.29
2023-01-30T19:17:19.227Z,5.27
2023-01-30T19:19:51.532Z,5.25
2023-01-30T19:22:23.663Z,5.20
2023-01-30T19:24:54.178Z,5.18
2023-01-30T19:27:25.931Z,5.22
2023-01-30T19:29:58.682Z,5.12
2023-01-30T19:32:29.458Z,5.17
2023-01-30T19:35:01.666Z,5.12
2023-01-30T19:37:33.559Z,5.16
2023-01-30T19:40:08.747Z,5.22
2023-01-30T19:42:44.420Z,5.38
2023-01-30T19:45:15.004Z,5.24
2023-01-30T19:47:46.892Z,5.20
2023-01-30T19:50:17.825Z,5.18
2023-01-30T19:52:49.682Z,5.16
2023-01-30T19:55:22.053Z,5.04
2023-01-30T19:57:53.151Z,4.94
2023-01-30T20:00:24.900Z,4.86
2023-01-30T20:02:57.872Z,4.82
2023-01-30T20:05:30.972Z,4.77
2023-01-30T20:08:01.612Z,4.78
2023-01-30T20:10:39.714Z,4.78
2023-01-30T20:13:10.405Z,4.76
2023-01-30T20:15:43.741Z,4.76
2023-01-30T20:18:19.302Z,4.71
2023-01-30T20:20:54.402Z,4.72
2023-01-30T20:23:27.783Z,4.70
2023-01-30T20:25:59.405Z,4.74
2023-01-30T20:28:30.244Z,4.87
2023-01-30T20:31:05.035Z,4.96
2023-01-30T20:33:36.458Z,4.94
2023-01-30T20:36:11.486Z,4.96
2023-01-30T20:38:44.543Z,5.02
2023-01-30T20:41:21.427Z,4.98
2023-01-30T20:43:56.703Z,4.94
2023-01-30T20:46:43.897Z,4.83
2023-01-30T20:49:21.362Z,4.82
2023-01-30T20:51:56.081Z,4.86
2023-01-30T20:54:28.315Z,4.91
2023-01-30T20:56:58.913Z,4.92
2023-01-30T20:59:30.036Z,4.88
2023-01-30T21:02:03.317Z,4.93
2023-01-30T21:04:37.637Z,4.94
2023-01-30T21:07:12.457Z,4.90
2023-01-30T21:09:44.020Z,4.96
2023-01-30T21:12:16.321Z,4.98
2023-01-30T21:14:49.585Z,5.00
2023-01-30T21:17:28.650Z,4.97
2023-01-30T21:20:01.615Z,5.00
2023-01-30T21:22:32.737Z,4.98
2023-01-30T21:25:05.059Z,4.99
2023-01-30T21:27:40.805Z,5.07
2023-01-30T21:30:15.383Z,4.92
2023-01-30T21:32:46.435Z,4.82
2023-01-30T21:35:17.265Z,4.77
2023-01-30T21:38:07.021Z,4.80
2023-01-30T21:40:59.353Z,4.95
2023-01-30T21:43:30.031Z,4.86
2023-01-30T21:46:03.147Z,4.71
2023-01-30T21:48:34.863Z,4.68
2023-01-30T21:51:13.708Z,4.57
2023-01-30T21:53:46.198Z,4.62
2023-01-30T21:56:18.574Z,4.62
2023-01-30T21:58:51.795Z,4.48
2023-01-30T22:01:22.832Z,4.42
2023-01-30T22:03:54.068Z,4.38
2023-01-30T22:06:26.996Z,4.22
2023-01-30T22:09:00.214Z,4.16
2023-01-30T22:11:31.501Z,4.00
2023-01-30T22:14:03.885Z,4.93
2023-01-30T22:16:37.519Z,5.50
2023-01-30T22:19:08.590Z,4.80
2023-01-30T22:21:40.875Z,4.22
2023-01-30T22:24:11.689Z,4.02
2023-01-30T22:26:42.167Z,3.92
2023-01-30T22:29:19.182Z,3.86
2023-01-30T22:31:50.140Z,3.74
2023-01-30T22:34:30.580Z,3.80
2023-01-30T22:37:04.019Z,3.66
2023-01-30T22:39:36.035Z,3.64
2023-01-30T22:42:08.885Z,3.65
2023-01-30T22:44:40.617Z,3.56
2023-01-30T22:47:17.686Z,3.54
2023-01-30T22:49:49.265Z,3.68
2023-01-30T22:52:21.388Z,3.64
2023-01-30T22:54:53.797Z,3.62
2023-01-30T22:57:27.544Z,3.59
2023-01-30T23:00:02.865Z,3.56
2023-01-30T23:02:36.929Z,3.52
2023-01-30T23:05:14.546Z,3.59
2023-01-30T23:07:47.054Z,3.58
2023-01-30T23:10:21.382Z,3.49
2023-01-30T23:13:08.952Z,3.50
2023-01-30T23:15:43.909Z,3.53
2023-01-30T23:18:35.571Z,3.46
2023-01-30T23:21:09.154Z,3.46
2023-01-30T23:23:43.129Z,3.44
2023-01-30T23:26:14.693Z,3.42
2023-01-30T23:28:45.314Z,3.42
2023-01-30T23:31:18.989Z,3.50
2023-01-30T23:33:58.114Z,3.51
2023-01-30T23:36:29.293Z,3.46
2023-01-30T23:39:03.330Z,3.41
2023-01-30T23:41:37.617Z,3.44
2023-01-30T23:44:10.920Z,3.41
2023-01-30T23:46:43.890Z,3.40
2023-01-30T23:49:15.946Z,3.32
2023-01-30T23:51:49.131Z,3.35
2023-01-30T23:54:20.275Z,3.32
2023-01-30T23:56:51.233Z,3.24
2023-01-30T23:59:23.057Z,3.30
